Time;durP1;ratioP1;P1;durP2;ratioP2;P2;SDS_P1;SDS_P2;PMS_P1;PMS_P2;Temp;Humidity;BMP_temperature;BMP_pressure;BME280_temperature;BME280_humidity;BME280_pressure;Samples;Min_cycle;Max_cycle;Signal;HPM_P1;HPM_P2
2023/04/21 00:01:52;;;;;;;68.00;33.47;;;9.10;99.90;;;;;;5049335;28;20079;-71
2023/04/21 00:04:18;;;;;;;67.00;32.03;;;9.00;99.90;;;;;;5051159;28;20519;-73
2023/04/21 00:06:44;;;;;;;60.75;31.23;;;9.00;99.90;;;;;;5045761;28;20044;-74
2023/04/21 00:09:10;;;;;;;67.22;31.45;;;9.00;99.90;;;;;;5048180;28;20033;-69
2023/04/21 00:11:36;;;;;;;67.65;31.25;;;9.00;99.90;;;;;;5041774;28;20038;-74
2023/04/21 00:14:01;;;;;;;66.45;32.30;;;9.00;99.90;;;;;;5045485;28;20055;-70
2023/04/21 00:16:27;;;;;;;64.10;31.38;;;9.00;99.90;;;;;;5042757;28;20044;-69
2023/04/21 00:18:52;;;;;;;63.63;32.60;;;9.00;99.90;;;;;;5044872;28;20049;-73
2023/04/21 00:21:18;;;;;;;62.17;31.67;;;9.00;99.90;;;;;;5046328;28;20045;-69
2023/04/21 00:23:43;;;;;;;63.05;31.48;;;9.00;99.90;;;;;;5060582;28;20040;-70
2023/04/21 00:26:09;;;;;;;58.17;30.42;;;9.00;99.90;;;;;;5049718;28;20043;-73
2023/04/21 00:28:34;;;;;;;60.90;30.15;;;9.00;99.90;;;;;;5071514;28;20040;-74
2023/04/21 00:31:00;;;;;;;63.55;30.83;;;9.00;99.90;;;;;;5049845;28;20128;-74
2023/04/21 00:33:26;;;;;;;64.38;30.75;;;9.00;99.90;;;;;;5054875;28;20043;-71
2023/04/21 00:35:53;;;;;;;69.88;29.33;;;8.90;99.90;;;;;;5049830;28;20055;-75
2023/04/21 00:38:19;;;;;;;61.70;29.55;;;8.90;99.90;;;;;;5047460;28;20047;-74
2023/04/21 00:40:44;;;;;;;57.28;28.20;;;8.90;99.90;;;;;;5055132;28;20708;-72
2023/04/21 00:43:10;;;;;;;55.58;27.58;;;8.80;99.90;;;;;;5049029;28;21851;-73
2023/04/21 00:45:35;;;;;;;52.83;28.65;;;8.90;99.90;;;;;;5048080;28;20391;-71
2023/04/21 00:48:01;;;;;;;55.58;27.60;;;8.80;99.90;;;;;;5046949;28;20041;-73
2023/04/21 00:50:27;;;;;;;61.40;29.30;;;8.80;99.90;;;;;;5048434;28;20036;-73
2023/04/21 00:52:53;;;;;;;56.67;27.38;;;8.70;99.90;;;;;;5047559;28;20021;-74
2023/04/21 00:55:18;;;;;;;59.28;28.80;;;8.80;99.90;;;;;;5045329;28;20098;-72
2023/04/21 00:57:44;;;;;;;48.75;26.48;;;8.70;99.90;;;;;;5045120;28;20479;-72
2023/04/21 01:00:10;;;;;;;53.33;27.70;;;8.70;99.90;;;;;;5046432;28;20032;-73
2023/04/21 01:02:40;;;;;;;52.20;26.80;;;8.70;99.90;;;;;;5045482;28;20037;-73
2023/04/21 01:05:07;;;;;;;54.55;26.55;;;8.70;99.90;;;;;;5041117;28;20444;-73
2023/04/21 01:07:33;;;;;;;57.17;27.75;;;8.70;99.90;;;;;;5044475;28;20076;-72
2023/04/21 01:09:59;;;;;;;58.40;27.00;;;8.70;99.90;;;;;;5042830;28;20045;-71
2023/04/21 01:12:24;;;;;;;52.45;26.73;;;8.70;99.90;;;;;;5051393;28;20041;-74
2023/04/21 01:14:50;;;;;;;52.53;27.05;;;8.70;99.90;;;;;;5042733;28;20037;-73
2023/04/21 01:17:17;;;;;;;49.80;26.05;;;8.70;99.90;;;;;;5042415;28;20392;-73
2023/04/21 01:19:44;;;;;;;51.20;25.83;;;8.70;99.90;;;;;;5044078;28;20029;-72
2023/04/21 01:22:11;;;;;;;49.92;25.50;;;8.70;99.90;;;;;;5049063;28;20082;-72
2023/04/21 01:24:42;;;;;;;48.90;26.02;;;8.60;99.90;;;;;;5048889;28;20049;-69
2023/04/21 01:27:10;;;;;;;56.08;26.85;;;8.70;99.90;;;;;;5047837;28;20082;-74
2023/04/21 01:29:35;;;;;;;49.65;25.10;;;8.70;99.90;;;;;;5046689;28;20397;-74
2023/04/21 01:32:07;;;;;;;50.92;25.10;;;8.70;99.90;;;;;;5044254;28;20033;-71
2023/04/21 01:34:32;;;;;;;47.87;23.53;;;8.70;99.90;;;;;;5045525;28;20119;-72
2023/04/21 01:37:01;;;;;;;46.92;23.73;;;8.70;99.90;;;;;;5046925;28;20453;-70
2023/04/21 01:39:27;;;;;;;46.97;22.80;;;8.70;99.90;;;;;;5044606;28;20052;-74
2023/04/21 01:41:56;;;;;;;51.53;23.77;;;8.70;99.90;;;;;;5040742;28;20559;-74
2023/04/21 01:44:22;;;;;;;47.13;24.88;;;8.70;99.90;;;;;;5043400;28;20048;-72
2023/04/21 01:46:48;;;;;;;47.10;26.10;;;8.60;99.90;;;;;;5040605;28;20072;-71
2023/04/21 01:49:14;;;;;;;44.15;21.95;;;8.70;99.90;;;;;;5043716;28;20274;-74
2023/04/21 01:51:40;;;;;;;46.70;23.58;;;8.70;99.90;;;;;;5042387;28;20040;-70
2023/04/21 01:54:06;;;;;;;45.80;24.48;;;8.60;99.90;;;;;;5043883;28;20037;-71
2023/04/21 01:56:31;;;;;;;43.97;24.40;;;8.60;99.90;;;;;;5044973;28;20037;-73
2023/04/21 01:58:57;;;;;;;46.30;24.65;;;8.60;99.90;;;;;;5044428;28;20037;-73
2023/04/21 02:01:22;;;;;;;50.17;23.63;;;8.70;99.90;;;;;;5041861;28;20037;-72
2023/04/21 02:03:48;;;;;;;45.58;24.38;;;8.60;99.90;;;;;;5042191;28;20124;-70
2023/04/21 02:06:13;;;;;;;46.00;23.42;;;8.60;99.90;;;;;;5042635;28;20483;-74
2023/04/21 02:08:39;;;;;;;44.67;23.25;;;8.70;99.90;;;;;;5042595;28;20063;-73
2023/04/21 02:11:04;;;;;;;46.10;22.75;;;8.70;99.90;;;;;;5045001;28;20143;-71
2023/04/21 02:13:30;;;;;;;44.92;23.50;;;8.60;99.90;;;;;;5046293;28;20044;-70
2023/04/21 02:15:57;;;;;;;42.75;22.77;;;8.60;99.90;;;;;;5046476;28;20036;-71
2023/04/21 02:18:22;;;;;;;44.67;22.48;;;8.70;99.90;;;;;;5044294;28;20086;-72
2023/04/21 02:20:48;;;;;;;46.47;23.00;;;8.70;99.90;;;;;;5048408;28;20044;-72
2023/04/21 02:23:13;;;;;;;43.67;23.05;;;8.70;99.90;;;;;;5045895;28;20056;-70
2023/04/21 02:25:39;;;;;;;45.13;22.67;;;8.70;99.90;;;;;;5046666;28;20160;-68
2023/04/21 02:28:04;;;;;;;43.97;23.30;;;8.70;99.90;;;;;;5044996;28;20132;-73
2023/04/21 02:30:30;;;;;;;45.80;22.73;;;8.70;99.90;;;;;;5049756;28;20029;-72
2023/04/21 02:32:55;;;;;;;40.38;23.25;;;8.60;99.90;;;;;;5046914;28;20029;-75
2023/04/21 02:35:21;;;;;;;40.70;21.90;;;8.60;99.90;;;;;;5048956;28;20068;-73
2023/04/21 02:37:47;;;;;;;40.13;22.83;;;8.60;99.90;;;;;;5043542;28;20052;-74
2023/04/21 02:40:12;;;;;;;41.53;21.98;;;8.60;99.90;;;;;;5046997;28;20049;-72
2023/04/21 02:42:38;;;;;;;45.92;22.92;;;8.60;99.90;;;;;;5046730;28;20029;-75
2023/04/21 02:45:04;;;;;;;43.97;22.67;;;8.60;99.90;;;;;;5045491;28;20048;-72
2023/04/21 02:47:29;;;;;;;43.72;20.90;;;8.60;99.90;;;;;;5044617;28;20040;-69
2023/04/21 02:49:55;;;;;;;42.75;21.90;;;8.60;99.90;;;;;;5046897;28;20430;-72
2023/04/21 02:52:20;;;;;;;41.78;21.75;;;8.60;99.90;;;;;;5041309;28;20102;-71
2023/04/21 02:54:46;;;;;;;40.80;20.17;;;8.60;99.90;;;;;;5047160;28;20036;-73
2023/04/21 02:57:11;;;;;;;40.58;22.13;;;8.60;99.90;;;;;;5044352;28;20447;-75
2023/04/21 02:59:37;;;;;;;37.88;21.08;;;8.60;99.90;;;;;;5048081;28;20071;-75
2023/04/21 03:02:02;;;;;;;39.17;21.13;;;8.60;99.90;;;;;;5047208;28;20056;-73
2023/04/21 03:04:28;;;;;;;39.33;21.05;;;8.60;99.90;;;;;;5057026;28;20048;-70
2023/04/21 03:06:54;;;;;;;36.70;19.95;;;8.70;99.90;;;;;;5046027;28;20044;-72
2023/04/21 03:09:20;;;;;;;40.03;21.55;;;8.60;99.90;;;;;;5045571;28;20047;-73
2023/04/21 03:11:45;;;;;;;41.00;22.52;;;8.70;99.90;;;;;;5046926;28;20098;-72
2023/04/21 03:14:11;;;;;;;41.92;20.77;;;8.70;99.90;;;;;;5044472;28;20116;-73
2023/04/21 03:16:36;;;;;;;44.25;21.83;;;8.70;99.90;;;;;;5044813;28;20036;-71
2023/04/21 03:19:02;;;;;;;48.60;22.17;;;8.80;99.90;;;;;;5044353;28;20044;-70
2023/04/21 03:21:27;;;;;;;37.28;21.33;;;8.80;99.90;;;;;;5043528;28;20056;-74
2023/04/21 03:23:53;;;;;;;40.85;21.88;;;8.80;99.90;;;;;;5045079;28;20049;-70
2023/04/21 03:26:18;;;;;;;41.05;21.33;;;8.90;99.90;;;;;;5046883;28;20043;-74
2023/04/21 03:28:44;;;;;;;41.47;20.90;;;8.80;99.90;;;;;;5040963;28;20440;-73
2023/04/21 03:31:10;;;;;;;36.13;20.25;;;8.80;99.90;;;;;;5043533;28;20037;-72
2023/04/21 03:33:35;;;;;;;44.33;21.38;;;8.80;99.90;;;;;;5044920;28;20469;-74
2023/04/21 03:36:01;;;;;;;38.53;20.23;;;8.80;99.90;;;;;;5046688;28;20325;-72
2023/04/21 03:38:28;;;;;;;36.88;20.55;;;8.80;99.90;;;;;;5045820;28;20507;-74
2023/04/21 03:40:54;;;;;;;38.85;21.38;;;8.90;99.90;;;;;;5043971;28;20048;-73
2023/04/21 03:43:19;;;;;;;42.33;20.67;;;8.90;99.90;;;;;;5043929;28;20045;-73
2023/04/21 03:45:45;;;;;;;36.42;20.42;;;8.90;99.90;;;;;;5043340;28;20041;-74
2023/04/21 03:48:10;;;;;;;33.70;19.65;;;8.90;99.90;;;;;;5043200;28;20043;-72
2023/04/21 03:50:37;;;;;;;41.42;20.52;;;9.00;99.90;;;;;;5042185;28;20427;-73
2023/04/21 03:53:03;;;;;;;38.95;20.77;;;9.00;99.90;;;;;;5059841;28;20091;-75
2023/04/21 03:55:28;;;;;;;37.28;20.98;;;9.00;99.90;;;;;;5044214;28;20106;-74
2023/04/21 03:57:54;;;;;;;41.72;21.05;;;9.00;99.90;;;;;;5044482;28;20048;-74
2023/04/21 04:00:20;;;;;;;39.35;19.92;;;9.00;99.90;;;;;;5048115;28;20365;-71
2023/04/21 04:02:45;;;;;;;39.90;21.17;;;9.00;99.90;;;;;;5041636;28;20123;-73
2023/04/21 04:05:11;;;;;;;39.28;20.92;;;8.90;99.90;;;;;;5049927;28;20571;-71
2023/04/21 04:07:37;;;;;;;37.45;19.55;;;9.00;99.90;;;;;;5040950;28;20076;-71
2023/04/21 04:10:03;;;;;;;37.35;19.80;;;8.90;99.90;;;;;;5047150;28;20037;-75
2023/04/21 04:12:28;;;;;;;37.05;21.45;;;8.90;99.90;;;;;;5048893;28;20388;-74
2023/04/21 04:14:54;;;;;;;36.85;20.60;;;8.90;99.90;;;;;;5046866;28;20041;-73
2023/04/21 04:17:19;;;;;;;40.28;19.83;;;8.90;99.90;;;;;;5047626;28;20037;-74
2023/04/21 04:19:45;;;;;;;41.38;20.80;;;8.90;99.90;;;;;;5048016;28;20033;-73
2023/04/21 04:22:11;;;;;;;39.05;20.48;;;9.00;99.90;;;;;;5046813;28;20049;-70
2023/04/21 04:24:36;;;;;;;38.42;20.15;;;8.90;99.90;;;;;;5048232;28;20082;-73
2023/04/21 04:27:02;;;;;;;38.67;20.10;;;9.00;99.90;;;;;;5047585;28;20052;-73
2023/04/21 04:29:28;;;;;;;40.55;21.20;;;8.90;99.90;;;;;;5047778;28;20127;-71
2023/04/21 04:31:54;;;;;;;40.20;21.20;;;8.90;99.90;;;;;;5049474;28;20051;-72
2023/04/21 04:34:19;;;;;;;36.95;20.15;;;8.90;99.90;;;;;;5060153;28;20032;-72
2023/04/21 04:36:46;;;;;;;39.63;20.85;;;8.90;99.90;;;;;;5048663;28;20492;-71
2023/04/21 04:39:12;;;;;;;39.13;19.95;;;8.90;99.90;;;;;;5047409;28;20124;-73
2023/04/21 04:41:38;;;;;;;37.95;20.10;;;8.80;99.90;;;;;;5046736;28;20514;-72
2023/04/21 04:44:04;;;;;;;40.88;19.92;;;8.80;99.90;;;;;;5050378;28;20048;-74
2023/04/21 04:46:31;;;;;;;35.95;21.02;;;8.80;99.90;;;;;;5046853;28;20037;-74
2023/04/21 04:48:56;;;;;;;37.13;20.02;;;8.80;99.90;;;;;;5044610;28;20201;-75
2023/04/21 04:51:22;;;;;;;39.15;20.13;;;8.80;99.90;;;;;;5047649;28;20123;-74
2023/04/21 04:53:48;;;;;;;42.90;20.88;;;8.70;99.90;;;;;;5047971;28;20119;-74
2023/04/21 04:56:13;;;;;;;42.72;20.73;;;8.70;99.90;;;;;;5055936;28;20032;-73
2023/04/21 04:58:39;;;;;;;39.80;20.95;;;8.70;99.90;;;;;;5059613;28;20048;-72
2023/04/21 05:01:15;;;;;;;36.45;20.08;;;8.70;99.90;;;;;;5046479;28;20044;-73
2023/04/21 05:03:41;;;;;;;37.90;21.00;;;8.80;99.90;;;;;;5045684;28;20066;-72
2023/04/21 05:06:07;;;;;;;40.75;21.27;;;8.70;99.90;;;;;;5054117;28;20119;-73
2023/04/21 05:08:33;;;;;;;43.15;20.17;;;8.80;99.90;;;;;;5061061;28;20131;-72
2023/04/21 05:10:58;;;;;;;35.47;19.88;;;8.80;99.90;;;;;;5050197;28;20037;-75
2023/04/21 05:13:24;;;;;;;42.53;20.17;;;8.80;99.90;;;;;;5031515;28;20412;-73
2023/04/21 05:15:55;;;;;;;35.38;19.75;;;8.90;99.90;;;;;;5046229;28;20040;-75
2023/04/21 05:18:21;;;;;;;39.92;20.55;;;8.90;99.90;;;;;;5048130;28;20036;-70
2023/04/21 05:20:47;;;;;;;35.65;20.20;;;8.90;99.90;;;;;;5048023;28;20055;-73
2023/04/21 05:23:12;;;;;;;38.58;18.88;;;9.00;99.90;;;;;;5047279;28;20041;-72
2023/04/21 05:25:38;;;;;;;38.78;20.55;;;9.00;99.90;;;;;;5045642;28;20041;-72
2023/04/21 05:28:03;;;;;;;42.20;20.30;;;9.10;99.90;;;;;;5046326;28;20044;-71
2023/04/21 05:30:29;;;;;;;38.42;20.60;;;9.10;99.90;;;;;;5044336;28;20041;-74
2023/04/21 05:32:54;;;;;;;35.85;20.38;;;9.10;99.90;;;;;;5041056;28;20037;-74
2023/04/21 05:35:20;;;;;;;44.20;20.85;;;9.10;99.90;;;;;;5050424;28;20498;-70
2023/04/21 05:37:46;;;;;;;36.22;19.65;;;9.10;99.90;;;;;;5039880;28;20500;-75
2023/04/21 05:40:11;;;;;;;37.38;19.20;;;9.10;99.90;;;;;;5051646;28;20071;-72
2023/04/21 05:42:37;;;;;;;38.90;21.13;;;9.20;99.90;;;;;;5040307;28;20499;-70
2023/04/21 05:45:03;;;;;;;37.35;20.17;;;9.20;99.90;;;;;;5042873;28;20386;-76
2023/04/21 05:47:29;;;;;;;33.47;19.38;;;9.20;99.90;;;;;;5040675;28;20041;-73
2023/04/21 05:49:54;;;;;;;36.78;19.75;;;9.20;99.90;;;;;;5042709;28;20472;-72
2023/04/21 05:52:20;;;;;;;38.72;19.42;;;9.30;99.90;;;;;;5051042;28;20068;-74
2023/04/21 05:54:46;;;;;;;39.60;20.08;;;9.30;99.90;;;;;;5051383;28;20036;-72
2023/04/21 05:57:12;;;;;;;39.03;20.35;;;9.30;99.90;;;;;;5051716;28;20079;-70
2023/04/21 05:59:38;;;;;;;36.25;18.90;;;9.30;99.90;;;;;;5052153;28;20318;-70
2023/04/21 06:02:03;;;;;;;40.47;18.80;;;9.40;99.90;;;;;;5049859;28;20438;-73
2023/04/21 06:04:30;;;;;;;39.53;20.17;;;9.40;99.90;;;;;;5056589;28;20403;-70
2023/04/21 06:06:55;;;;;;;35.08;18.58;;;9.40;99.90;;;;;;5050559;28;20451;-74
2023/04/21 06:09:21;;;;;;;39.63;20.05;;;9.40;99.90;;;;;;5065365;28;20068;-70
2023/04/21 06:11:46;;;;;;;34.58;19.15;;;9.50;99.90;;;;;;5051902;28;20037;-76
2023/04/21 06:14:12;;;;;;;34.15;20.27;;;9.50;99.90;;;;;;5054220;28;20041;-72
2023/04/21 06:16:38;;;;;;;36.30;20.17;;;9.50;99.90;;;;;;5035782;28;20543;-73
2023/04/21 06:19:03;;;;;;;33.13;19.35;;;9.60;99.90;;;;;;5057601;28;20113;-71
2023/04/21 06:21:29;;;;;;;32.47;18.50;;;9.60;99.90;;;;;;5047940;28;20400;-72
2023/04/21 06:23:55;;;;;;;36.90;20.13;;;9.70;99.90;;;;;;5050863;28;20476;-69
2023/04/21 06:26:20;;;;;;;34.15;17.77;;;9.80;99.90;;;;;;5047062;28;20049;-72
2023/04/21 06:28:46;;;;;;;36.45;19.90;;;9.90;99.90;;;;;;5057372;28;20045;-75
2023/04/21 06:31:14;;;;;;;38.20;19.75;;;9.90;99.90;;;;;;5042515;28;20047;-74
2023/04/21 06:33:40;;;;;;;34.67;19.52;;;10.00;99.90;;;;;;5041641;28;20040;-74
2023/04/21 06:36:06;;;;;;;36.25;19.23;;;10.10;99.90;;;;;;5041139;28;20032;-74
2023/04/21 06:38:31;;;;;;;36.28;18.70;;;10.20;99.90;;;;;;5045892;28;20037;-72
2023/04/21 06:40:57;;;;;;;35.80;18.55;;;10.30;99.90;;;;;;5051154;28;20053;-70
2023/04/21 06:43:23;;;;;;;33.70;18.25;;;10.30;99.90;;;;;;5051601;28;20236;-68
2023/04/21 06:45:48;;;;;;;32.30;18.17;;;10.40;99.90;;;;;;5051589;28;20408;-72
2023/04/21 06:48:14;;;;;;;32.63;19.13;;;10.50;99.90;;;;;;5064000;28;20090;-74
2023/04/21 06:50:39;;;;;;;33.60;18.45;;;10.50;99.90;;;;;;5052509;28;20492;-73
2023/04/21 06:53:05;;;;;;;34.85;18.90;;;10.60;99.90;;;;;;5049372;28;20040;-73
2023/04/21 06:55:31;;;;;;;30.73;18.70;;;10.60;99.90;;;;;;5076994;28;20077;-73
2023/04/21 06:57:56;;;;;;;34.65;19.08;;;10.60;99.90;;;;;;5051128;28;20055;-72
2023/04/21 07:00:22;;;;;;;37.15;19.55;;;10.60;99.90;;;;;;5051596;28;20114;-71
2023/04/21 07:02:47;;;;;;;34.35;18.17;;;10.70;99.90;;;;;;5064178;28;20377;-73
2023/04/21 07:05:13;;;;;;;35.30;18.90;;;10.60;99.90;;;;;;5050235;28;20547;-72
2023/04/21 07:07:39;;;;;;;31.10;18.08;;;10.70;99.90;;;;;;5051877;28;20044;-75
2023/04/21 07:10:06;;;;;;;34.70;18.65;;;10.70;99.90;;;;;;5059260;28;20581;-72
2023/04/21 07:12:31;;;;;;;37.42;19.73;;;10.70;99.90;;;;;;5071933;28;20048;-73
2023/04/21 07:14:57;;;;;;;36.95;19.27;;;10.80;99.90;;;;;;5061595;28;20033;-73
2023/04/21 07:17:22;;;;;;;31.42;19.15;;;10.90;99.90;;;;;;5052123;28;20063;-70
2023/04/21 07:19:48;;;;;;;40.00;19.25;;;11.00;99.90;;;;;;5065081;28;20102;-73
2023/04/21 07:22:13;;;;;;;33.05;19.00;;;11.10;99.90;;;;;;5072112;28;20048;-75
2023/04/21 07:24:39;;;;;;;33.33;17.95;;;11.20;99.90;;;;;;5047658;28;20048;-69
2023/04/21 07:27:04;;;;;;;37.00;18.33;;;11.20;99.90;;;;;;5051874;28;20052;-73
2023/04/21 07:29:30;;;;;;;33.25;18.27;;;11.30;99.90;;;;;;5046012;28;20098;-71
2023/04/21 07:31:57;;;;;;;38.08;19.05;;;11.40;99.90;;;;;;5050791;28;20045;-70
2023/04/21 07:34:23;;;;;;;30.25;18.65;;;11.50;99.90;;;;;;5059145;28;20601;-71
2023/04/21 07:36:50;;;;;;;39.13;19.90;;;11.50;99.90;;;;;;5053083;28;20041;-75
2023/04/21 07:39:16;;;;;;;33.45;17.98;;;11.60;99.90;;;;;;5061213;28;20076;-72
2023/04/21 07:41:41;;;;;;;34.10;18.40;;;11.70;99.90;;;;;;5050564;28;20072;-69
2023/04/21 07:44:07;;;;;;;40.72;20.33;;;11.80;99.90;;;;;;5052869;28;20062;-73
2023/04/21 07:46:32;;;;;;;33.65;19.10;;;11.90;99.90;;;;;;5071787;28;20101;-71
2023/04/21 07:48:59;;;;;;;38.05;19.48;;;11.90;99.90;;;;;;5068687;28;20036;-72
2023/04/21 07:51:26;;;;;;;34.40;18.10;;;12.10;99.90;;;;;;5069630;28;20095;-72
2023/04/21 07:53:52;;;;;;;31.90;19.23;;;12.10;99.90;;;;;;5069545;28;20036;-69
2023/04/21 07:56:17;;;;;;;36.28;19.20;;;12.20;99.90;;;;;;5052633;28;20159;-73
2023/04/21 07:58:43;;;;;;;38.58;19.02;;;12.20;99.90;;;;;;5049792;28;20419;-71
2023/04/21 08:01:09;;;;;;;38.50;19.15;;;12.30;99.90;;;;;;5071007;28;20040;-71
2023/04/21 08:03:34;;;;;;;34.10;19.10;;;12.40;99.90;;;;;;5055673;28;20040;-74
2023/04/21 08:06:00;;;;;;;35.08;18.20;;;12.50;99.90;;;;;;5065907;28;20037;-70
2023/04/21 08:08:26;;;;;;;31.52;18.73;;;12.50;99.90;;;;;;5049301;28;20174;-70
2023/04/21 08:10:53;;;;;;;36.22;18.85;;;12.50;99.90;;;;;;5068159;28;20477;-69
2023/04/21 08:13:20;;;;;;;36.80;19.30;;;12.50;99.90;;;;;;5050166;28;20044;-73
2023/04/21 08:15:45;;;;;;;34.10;18.75;;;12.60;99.90;;;;;;5065413;28;20051;-72
2023/04/21 08:18:11;;;;;;;37.25;19.55;;;12.70;99.90;;;;;;5058060;28;20052;-74
2023/04/21 08:20:37;;;;;;;30.52;19.08;;;12.80;99.90;;;;;;5056698;28;20048;-73
2023/04/21 08:23:02;;;;;;;38.97;20.35;;;13.00;99.90;;;;;;5057858;28;20037;-72
2023/04/21 08:25:28;;;;;;;36.10;19.33;;;13.00;99.90;;;;;;5071686;28;20440;-71
2023/04/21 08:27:53;;;;;;;35.05;19.90;;;13.00;99.90;;;;;;5050533;28;20132;-74
2023/04/21 08:30:19;;;;;;;35.35;20.02;;;13.10;99.90;;;;;;5060010;28;20044;-69
2023/04/21 08:32:45;;;;;;;33.67;18.63;;;13.20;99.90;;;;;;5048623;28;20045;-72
2023/04/21 08:35:10;;;;;;;36.55;19.83;;;13.40;99.90;;;;;;5044305;28;20045;-70
2023/04/21 08:37:37;;;;;;;37.55;18.85;;;13.50;99.90;;;;;;5050090;28;20041;-71
2023/04/21 08:40:04;;;;;;;38.88;21.08;;;13.60;99.90;;;;;;5054710;28;20033;-70
2023/04/21 08:42:30;;;;;;;37.45;20.08;;;13.70;99.90;;;;;;5048151;28;20559;-71
2023/04/21 08:44:55;;;;;;;36.00;20.15;;;13.90;99.90;;;;;;5057186;28;20111;-75
2023/04/21 08:47:23;;;;;;;36.35;20.33;;;14.10;99.90;;;;;;5068485;28;20048;-71
2023/04/21 08:49:50;;;;;;;41.60;20.45;;;14.10;99.90;;;;;;5051379;28;20044;-72
2023/04/21 08:52:16;;;;;;;37.30;20.90;;;14.20;99.90;;;;;;5049564;28;20073;-73
2023/04/21 08:54:42;;;;;;;35.20;20.20;;;14.10;99.90;;;;;;5052515;28;20040;-71
2023/04/21 08:57:07;;;;;;;37.45;20.38;;;14.20;99.90;;;;;;5066152;28;20593;-72
2023/04/21 08:59:33;;;;;;;38.58;20.38;;;14.10;99.90;;;;;;5052702;28;20072;-72
2023/04/21 09:02:11;;;;;;;40.20;20.85;;;14.00;99.90;;;;;;5049366;28;20099;-72
2023/04/21 09:04:41;;;;;;;38.63;20.40;;;14.00;99.90;;;;;;5055976;28;20048;-75
2023/04/21 09:07:07;;;;;;;35.10;20.30;;;14.00;99.90;;;;;;5063414;28;20052;-72
2023/04/21 09:09:50;;;;;;;37.17;19.83;;;14.00;99.90;;;;;;5051014;28;20093;-71
2023/04/21 09:12:16;;;;;;;42.17;21.08;;;14.10;99.90;;;;;;5059739;28;20047;-74
2023/04/21 09:14:42;;;;;;;47.40;20.67;;;14.10;99.90;;;;;;5057138;28;20071;-70
2023/04/21 09:17:09;;;;;;;38.95;20.17;;;14.10;99.90;;;;;;5059464;28;20028;-73
2023/04/21 09:19:34;;;;;;;37.58;20.90;;;14.20;99.90;;;;;;5053805;28;20044;-72
2023/04/21 09:22:01;;;;;;;37.83;20.67;;;14.20;99.90;;;;;;5049289;28;20487;-73
2023/04/21 09:24:26;;;;;;;38.13;21.23;;;14.30;99.90;;;;;;5047228;28;20056;-70
2023/04/21 09:26:53;;;;;;;38.10;21.17;;;14.40;99.90;;;;;;5050859;28;20037;-69
2023/04/21 09:29:25;;;;;;;41.08;20.38;;;14.40;99.90;;;;;;5048790;28;20036;-70
2023/04/21 09:31:51;;;;;;;37.95;21.55;;;14.50;99.90;;;;;;5050295;28;20044;-70
2023/04/21 09:34:25;;;;;;;38.83;21.90;;;14.70;99.90;;;;;;5046735;28;20037;-73
2023/04/21 09:37:02;;;;;;;38.50;21.67;;;14.80;99.90;;;;;;5044548;28;20049;-69
2023/04/21 09:39:29;;;;;;;42.25;21.90;;;15.00;99.90;;;;;;5044504;28;20076;-74
2023/04/21 09:41:56;;;;;;;44.35;22.90;;;15.10;99.90;;;;;;5045303;28;20041;-74
2023/04/21 09:44:22;;;;;;;40.42;21.45;;;15.30;99.90;;;;;;5050935;28;20047;-71
2023/04/21 09:46:49;;;;;;;40.88;22.23;;;15.40;99.90;;;;;;5056604;28;20028;-71
2023/04/21 09:49:17;;;;;;;36.30;21.63;;;15.40;99.90;;;;;;5049072;28;20120;-73
2023/04/21 09:51:43;;;;;;;40.13;22.55;;;15.40;99.90;;;;;;5049752;28;20126;-73
2023/04/21 09:54:15;;;;;;;38.45;23.13;;;15.50;99.90;;;;;;5049056;28;20507;-74
2023/04/21 09:56:42;;;;;;;45.17;22.67;;;15.60;99.90;;;;;;5052061;28;20500;-73
2023/04/21 09:59:16;;;;;;;40.65;23.67;;;15.80;99.90;;;;;;5057521;28;20087;-71
2023/04/21 10:01:43;;;;;;;46.55;23.73;;;15.90;99.90;;;;;;5064784;28;20060;-70
2023/04/21 10:04:09;;;;;;;46.47;24.42;;;15.90;99.90;;;;;;5051332;28;20091;-73
2023/04/21 10:06:35;;;;;;;39.90;23.00;;;15.80;99.90;;;;;;5066232;28;20067;-71
2023/04/21 10:09:03;;;;;;;43.22;24.52;;;15.80;99.90;;;;;;5052644;28;20102;-70
2023/04/21 10:11:29;;;;;;;45.55;24.02;;;15.70;99.90;;;;;;5069132;28;20044;-74
2023/04/21 10:13:55;;;;;;;42.40;22.35;;;15.50;99.90;;;;;;5069020;28;20435;-72
2023/04/21 10:16:22;;;;;;;41.53;23.48;;;15.40;99.90;;;;;;5068496;28;20077;-69
2023/04/21 10:18:47;;;;;;;38.08;21.88;;;15.30;99.90;;;;;;5052788;28;20041;-71
2023/04/21 10:21:20;;;;;;;45.63;23.48;;;15.30;99.90;;;;;;5049929;28;20198;-70
2023/04/21 10:23:57;;;;;;;41.88;24.65;;;15.30;99.90;;;;;;5052068;28;20049;-69
2023/04/21 10:26:34;;;;;;;41.58;24.63;;;15.40;99.90;;;;;;5067834;28;20107;-73
2023/04/21 10:29:05;;;;;;;53.65;25.70;;;15.60;99.90;;;;;;5051691;28;20456;-74
2023/04/21 10:31:30;;;;;;;46.08;25.70;;;15.70;99.90;;;;;;5067271;28;20080;-75
2023/04/21 10:34:05;;;;;;;46.42;25.13;;;15.90;99.90;;;;;;5057011;28;20064;-73
2023/04/21 10:36:41;;;;;;;43.35;25.58;;;16.00;99.90;;;;;;5049561;28;20068;-72
2023/04/21 10:39:11;;;;;;;43.13;25.38;;;16.00;99.90;;;;;;5060222;28;20102;-73
2023/04/21 10:41:37;;;;;;;40.58;24.65;;;16.00;99.90;;;;;;5054662;28;20044;-72
2023/04/21 10:44:10;;;;;;;42.40;24.00;;;16.10;99.90;;;;;;5070783;28;20052;-73
2023/04/21 10:46:38;;;;;;;45.05;24.50;;;16.10;99.90;;;;;;5069051;28;20123;-73
2023/04/21 10:49:27;;;;;;;47.05;24.65;;;16.00;99.90;;;;;;5056173;28;20037;-72
2023/04/21 10:51:59;;;;;;;45.40;24.58;;;16.00;99.90;;;;;;5043065;28;20434;-72
2023/04/21 10:54:26;;;;;;;42.50;25.92;;;16.00;99.90;;;;;;5047815;28;20476;-70
2023/04/21 10:56:56;;;;;;;42.30;24.52;;;16.00;99.90;;;;;;5047736;28;20037;-74
2023/04/21 10:59:23;;;;;;;45.13;24.67;;;16.00;99.90;;;;;;5046852;28;20045;-72
2023/04/21 11:01:49;;;;;;;42.55;24.83;;;16.10;99.90;;;;;;5045284;28;20534;-74
2023/04/21 11:04:19;;;;;;;42.17;23.95;;;16.20;99.90;;;;;;5044661;28;20052;-73
2023/04/21 11:07:10;;;;;;;42.63;24.65;;;16.40;99.90;;;;;;5045190;28;20445;-73
2023/04/21 11:09:37;;;;;;;41.22;25.27;;;16.50;99.90;;;;;;5043853;28;20111;-73
2023/04/21 11:12:06;;;;;;;42.25;24.85;;;16.50;99.90;;;;;;5046215;28;20091;-73
2023/04/21 11:14:34;;;;;;;43.45;25.35;;;16.60;99.90;;;;;;5044361;28;20034;-73
2023/04/21 11:17:00;;;;;;;44.25;24.73;;;16.70;99.90;;;;;;5043381;28;20041;-74
2023/04/21 11:19:26;;;;;;;43.22;23.58;;;16.90;99.90;;;;;;5044519;28;20127;-74
2023/04/21 11:21:56;;;;;;;42.58;24.65;;;17.00;99.90;;;;;;5045240;28;20127;-74
2023/04/21 11:24:22;;;;;;;42.15;24.77;;;17.10;99.90;;;;;;5043206;28;20130;-73
2023/04/21 11:26:47;;;;;;;43.80;25.42;;;17.10;99.90;;;;;;5044203;28;20090;-74
2023/04/21 11:29:14;;;;;;;43.23;24.20;;;17.20;99.90;;;;;;5010713;28;1025351;-73
2023/04/21 11:31:42;;;;;;;40.38;24.98;;;17.20;99.90;;;;;;5047043;28;20307;-72
2023/04/21 11:34:08;;;;;;;39.47;24.55;;;17.10;99.90;;;;;;5046334;28;20599;-75
2023/04/21 11:36:39;;;;;;;41.72;24.58;;;17.10;99.90;;;;;;5046475;28;20076;-74
2023/04/21 11:39:10;;;;;;;43.20;24.73;;;17.20;99.90;;;;;;5043847;28;20037;-74
2023/04/21 11:41:39;;;;;;;40.13;24.23;;;17.30;99.90;;;;;;5047190;28;20546;-74
2023/04/21 11:44:05;;;;;;;39.53;24.10;;;17.40;99.90;;;;;;5046135;28;20047;-72
2023/04/21 11:46:35;;;;;;;39.35;23.38;;;17.50;99.90;;;;;;5045779;28;20387;-73
2023/04/21 11:49:06;;;;;;;48.85;24.02;;;17.60;99.90;;;;;;5044952;28;20049;-73
2023/04/21 11:51:42;;;;;;;42.35;24.50;;;17.70;99.90;;;;;;5047081;28;20552;-74
2023/04/21 11:54:10;;;;;;;41.45;25.90;;;17.70;99.90;;;;;;5047871;28;20040;-73
2023/04/21 11:56:37;;;;;;;41.22;24.52;;;17.90;99.90;;;;;;5045755;28;20032;-73
2023/04/21 11:59:18;;;;;;;43.83;25.60;;;17.90;99.90;;;;;;5030102;28;20442;-72
2023/04/21 12:01:44;;;;;;;43.60;25.70;;;18.10;99.90;;;;;;5045451;28;20083;-70
2023/04/21 12:04:22;;;;;;;39.92;24.25;;;18.30;99.90;;;;;;5046950;28;20216;-69
2023/04/21 12:06:58;;;;;;;42.63;24.33;;;18.40;99.90;;;;;;5046513;28;20052;-72
2023/04/21 12:09:25;;;;;;;40.00;24.05;;;18.50;99.90;;;;;;5044953;28;20045;-73
2023/04/21 12:11:52;;;;;;;42.00;25.10;;;18.50;99.90;;;;;;5045109;28;20037;-72
2023/04/21 12:14:20;;;;;;;50.25;26.58;;;18.50;99.90;;;;;;5046805;28;20495;-73
2023/04/21 12:16:52;;;;;;;43.75;25.80;;;18.50;99.90;;;;;;5047557;28;20029;-73
2023/04/21 12:19:41;;;;;;;43.30;27.73;;;18.50;99.90;;;;;;5046521;28;20472;-70
2023/04/21 12:22:07;;;;;;;47.05;27.75;;;18.50;99.90;;;;;;5046650;28;20128;-72
2023/04/21 12:24:33;;;;;;;42.03;26.00;;;18.60;99.90;;;;;;5046317;28;20133;-71
2023/04/21 12:26:58;;;;;;;42.30;26.45;;;18.70;99.90;;;;;;5044708;28;20523;-72
2023/04/21 12:29:24;;;;;;;44.13;26.55;;;18.80;99.90;;;;;;5043768;28;20048;-72
2023/04/21 12:31:49;;;;;;;41.83;26.75;;;19.00;99.90;;;;;;5044995;28;20037;-73